Kezdőlap
METAR-TAF:

METAR-TAF

Repülőterek :

Litchfield Municipal Airport

Litchfield, Minnesota, Amerikai Egyesült Államok

földrajzi szélesség: 45-05-50N, földrajzi hosszúság: 094-30-26W, magasság: 348 m

Jelenlegi meteorológiai megfigyelések

A jelentés 17 perccel ezelõtt készült, 08:15 UTC
Északi szél 16 kt széllökések: 21 kt
Hőmérséklet 21°C
Páratartalom 73%
Légköri nyomás 1013 hPa
Látótávolság: 16.1 km
Szórványos felhőzet 3300 lábon
Szakadozott felhőzet 3900 lábon
Szakadozott felhőzet 4700 lábon

METAR: KLJF 100815Z AUTO 35016G21KT 10SM SCT033 BKN039 BKN047 21/16 A2990 RMK AO2

Idő: 03:32 (08:32 UTC)


TAF: hiányzik

Meteorológiai megfigyelések és előrejelzések több, mint 4000 repülőtéren (METAR és TAF jelentéseket).

A térképen piros és sárga pontok jelzik az elérhető meteorológiai állomásokat.

Mozgassa az egeret a pont fölött, hogy megjelenjen az állomás neve.

Azután kattintson az időjárási megfigyelések és előrejelzések megtekintéséhez.

A térkép megváltoztatása: kattintson a fekete keresztel jelölt zöld gombra ráközelítéshez, a vonallal jelölt zöld gombra távolításhoz, vagy a zöld nyilakra a szomszédos térképek eléréséhez.


METAR-TAF: